Lehigh Acres, Florida
Current Conditions -  °F | °C
As of 4:53 AM on Monday 22 Dec 2014 (Local Time) from KRSW Reporting Station
Clear Clear  
Wind Chill: 68°   Ceiling: Unl
Heat Index: 68°   Visibility: 10mi
Dew Point: 64°   Wind: 7mph
Humidity: 87%   Direction: 150°SSE
Pressure: 29.98"   Gusts: NA
Location:  26.61°N, 81.64°W
Report Text: KRSW 220953Z AUTO 15006KT 10SM CLR 20/18 A2998 RMK AO2 SLP148 T02000178 TSNO
Loading
Personal Weather Stations






























Interactive Weather Map New forecast layout! Learn more

10-Day Weather Forecast

Advertisements
Track Severe Weather on mobile